sensor_id;sensor_type;location;lat;lon;timestamp;P1;durP1;ratioP1;P2;durP2;ratioP2
8042;SDS011;4064;48.132;11.366;2024-02-14T00:01:34;5.32;;;3.83;;
8042;SDS011;4064;48.132;11.366;2024-02-14T00:04:02;4.90;;;3.42;;
8042;SDS011;4064;48.132;11.366;2024-02-14T00:06:29;3.58;;;3.15;;
8042;SDS011;4064;48.132;11.366;2024-02-14T00:09:00;4.07;;;3.60;;
8042;SDS011;4064;48.132;11.366;2024-02-14T00:11:26;3.57;;;3.27;;
8042;SDS011;4064;48.132;11.366;2024-02-14T00:13:51;4.17;;;3.30;;
8042;SDS011;4064;48.132;11.366;2024-02-14T00:16:17;4.90;;;3.60;;
8042;SDS011;4064;48.132;11.366;2024-02-14T00:18:43;6.43;;;3.77;;
8042;SDS011;4064;48.132;11.366;2024-02-14T00:21:08;5.47;;;3.03;;
8042;SDS011;4064;48.132;11.366;2024-02-14T00:23:34;3.93;;;2.73;;
8042;SDS011;4064;48.132;11.366;2024-02-14T00:26:00;5.20;;;2.87;;
8042;SDS011;4064;48.132;11.366;2024-02-14T00:28:26;3.20;;;3.00;;
8042;SDS011;4064;48.132;11.366;2024-02-14T00:30:52;3.60;;;3.30;;
8042;SDS011;4064;48.132;11.366;2024-02-14T00:33:17;4.53;;;3.37;;
8042;SDS011;4064;48.132;11.366;2024-02-14T00:35:45;5.20;;;3.15;;
8042;SDS011;4064;48.132;11.366;2024-02-14T00:38:11;5.20;;;3.10;;
8042;SDS011;4064;48.132;11.366;2024-02-14T00:40:36;3.53;;;3.23;;
8042;SDS011;4064;48.132;11.366;2024-02-14T00:43:02;3.17;;;2.83;;
8042;SDS011;4064;48.132;11.366;2024-02-14T00:45:28;3.30;;;3.00;;
8042;SDS011;4064;48.132;11.366;2024-02-14T00:47:53;5.13;;;3.37;;
8042;SDS011;4064;48.132;11.366;2024-02-14T00:50:19;4.13;;;2.90;;
8042;SDS011;4064;48.132;11.366;2024-02-14T00:52:45;3.13;;;2.83;;
8042;SDS011;4064;48.132;11.366;2024-02-14T00:55:10;3.70;;;3.40;;
8042;SDS011;4064;48.132;11.366;2024-02-14T00:57:36;3.87;;;3.00;;
8042;SDS011;4064;48.132;11.366;2024-02-14T01:00:02;4.38;;;3.35;;
8042;SDS011;4064;48.132;11.366;2024-02-14T01:02:29;5.32;;;3.13;;
8042;SDS011;4064;48.132;11.366;2024-02-14T01:04:55;3.70;;;2.80;;
8042;SDS011;4064;48.132;11.366;2024-02-14T01:07:20;3.30;;;2.93;;
8042;SDS011;4064;48.132;11.366;2024-02-14T01:09:46;3.27;;;2.90;;
8042;SDS011;4064;48.132;11.366;2024-02-14T01:12:12;3.80;;;3.33;;
8042;SDS011;4064;48.132;11.366;2024-02-14T01:14:38;3.20;;;2.50;;
8042;SDS011;4064;48.132;11.366;2024-02-14T01:17:03;3.57;;;3.27;;
8042;SDS011;4064;48.132;11.366;2024-02-14T01:19:29;2.87;;;2.67;;
8042;SDS011;4064;48.132;11.366;2024-02-14T01:21:55;6.17;;;3.20;;
8042;SDS011;4064;48.132;11.366;2024-02-14T01:24:23;2.92;;;2.65;;
8042;SDS011;4064;48.132;11.366;2024-02-14T01:26:51;3.85;;;3.33;;
8042;SDS011;4064;48.132;11.366;2024-02-14T01:29:19;4.13;;;2.25;;
8042;SDS011;4064;48.132;11.366;2024-02-14T01:31:45;3.47;;;2.97;;
8042;SDS011;4064;48.132;11.366;2024-02-14T01:34:10;3.20;;;2.47;;
8042;SDS011;4064;48.132;11.366;2024-02-14T01:36:36;3.40;;;2.63;;
8042;SDS011;4064;48.132;11.366;2024-02-14T01:39:03;2.70;;;2.50;;
8042;SDS011;4064;48.132;11.366;2024-02-14T01:41:35;3.15;;;2.38;;
8042;SDS011;4064;48.132;11.366;2024-02-14T01:44:01;3.60;;;2.17;;
8042;SDS011;4064;48.132;11.366;2024-02-14T01:46:27;2.77;;;2.50;;
8042;SDS011;4064;48.132;11.366;2024-02-14T01:48:53;3.03;;;2.00;;
8042;SDS011;4064;48.132;11.366;2024-02-14T01:51:19;4.20;;;2.60;;
8042;SDS011;4064;48.132;11.366;2024-02-14T01:53:49;3.50;;;2.38;;
8042;SDS011;4064;48.132;11.366;2024-02-14T01:56:16;2.90;;;2.30;;
8042;SDS011;4064;48.132;11.366;2024-02-14T01:58:42;2.17;;;1.90;;
8042;SDS011;4064;48.132;11.366;2024-02-14T02:01:08;4.32;;;2.95;;
8042;SDS011;4064;48.132;11.366;2024-02-14T02:03:35;2.20;;;2.10;;
8042;SDS011;4064;48.132;11.366;2024-02-14T02:06:02;3.83;;;2.65;;
8042;SDS011;4064;48.132;11.366;2024-02-14T02:08:31;3.13;;;2.88;;
8042;SDS011;4064;48.132;11.366;2024-02-14T02:10:58;2.15;;;1.80;;
8042;SDS011;4064;48.132;11.366;2024-02-14T02:13:23;3.53;;;2.17;;
8042;SDS011;4064;48.132;11.366;2024-02-14T02:15:51;2.70;;;2.40;;
8042;SDS011;4064;48.132;11.366;2024-02-14T02:18:18;4.50;;;2.20;;
8042;SDS011;4064;48.132;11.366;2024-02-14T02:20:44;2.15;;;1.92;;
8042;SDS011;4064;48.132;11.366;2024-02-14T02:23:11;3.80;;;2.27;;
8042;SDS011;4064;48.132;11.366;2024-02-14T02:25:40;2.70;;;2.00;;
8042;SDS011;4064;48.132;11.366;2024-02-14T02:28:06;3.22;;;2.10;;
8042;SDS011;4064;48.132;11.366;2024-02-14T02:30:33;2.50;;;1.95;;
8042;SDS011;4064;48.132;11.366;2024-02-14T02:33:00;5.38;;;2.40;;
8042;SDS011;4064;48.132;11.366;2024-02-14T02:35:27;3.08;;;2.78;;
8042;SDS011;4064;48.132;11.366;2024-02-14T02:37:53;3.97;;;2.30;;
8042;SDS011;4064;48.132;11.366;2024-02-14T02:40:19;4.00;;;2.30;;
8042;SDS011;4064;48.132;11.366;2024-02-14T02:42:46;2.28;;;2.08;;
8042;SDS011;4064;48.132;11.366;2024-02-14T02:45:12;2.47;;;2.25;;
8042;SDS011;4064;48.132;11.366;2024-02-14T02:47:38;2.40;;;1.97;;
8042;SDS011;4064;48.132;11.366;2024-02-14T02:50:05;2.95;;;2.65;;
8042;SDS011;4064;48.132;11.366;2024-02-14T02:52:31;5.00;;;2.45;;
8042;SDS011;4064;48.132;11.366;2024-02-14T02:54:57;2.50;;;2.17;;
8042;SDS011;4064;48.132;11.366;2024-02-14T02:57:23;2.47;;;2.10;;
8042;SDS011;4064;48.132;11.366;2024-02-14T02:59:48;3.10;;;2.27;;
8042;SDS011;4064;48.132;11.366;2024-02-14T03:02:14;2.57;;;2.07;;
8042;SDS011;4064;48.132;11.366;2024-02-14T03:04:40;3.65;;;2.05;;
8042;SDS011;4064;48.132;11.366;2024-02-14T03:07:07;3.85;;;1.80;;
8042;SDS011;4064;48.132;11.366;2024-02-14T03:09:34;2.70;;;1.73;;
8042;SDS011;4064;48.132;11.366;2024-02-14T03:12:01;2.85;;;2.20;;
8042;SDS011;4064;48.132;11.366;2024-02-14T03:14:28;1.88;;;1.77;;
8042;SDS011;4064;48.132;11.366;2024-02-14T03:17:02;6.05;;;2.85;;
8042;SDS011;4064;48.132;11.366;2024-02-14T03:19:28;2.70;;;2.50;;
8042;SDS011;4064;48.132;11.366;2024-02-14T03:21:55;2.40;;;2.10;;
8042;SDS011;4064;48.132;11.366;2024-02-14T03:24:21;3.95;;;1.77;;
8042;SDS011;4064;48.132;11.366;2024-02-14T03:26:47;2.95;;;1.63;;
8042;SDS011;4064;48.132;11.366;2024-02-14T03:29:16;1.98;;;1.77;;
8042;SDS011;4064;48.132;11.366;2024-02-14T03:31:42;3.43;;;2.00;;
8042;SDS011;4064;48.132;11.366;2024-02-14T03:34:09;1.90;;;1.67;;
8042;SDS011;4064;48.132;11.366;2024-02-14T03:36:38;2.83;;;1.73;;
8042;SDS011;4064;48.132;11.366;2024-02-14T03:39:04;2.15;;;1.95;;
8042;SDS011;4064;48.132;11.366;2024-02-14T03:41:30;2.83;;;2.30;;
8042;SDS011;4064;48.132;11.366;2024-02-14T03:43:56;4.35;;;2.47;;
8042;SDS011;4064;48.132;11.366;2024-02-14T03:46:27;2.60;;;2.30;;
8042;SDS011;4064;48.132;11.366;2024-02-14T03:48:53;7.18;;;2.30;;
8042;SDS011;4064;48.132;11.366;2024-02-14T03:51:19;3.40;;;1.75;;
8042;SDS011;4064;48.132;11.366;2024-02-14T03:53:46;2.50;;;1.88;;
8042;SDS011;4064;48.132;11.366;2024-02-14T03:56:12;3.47;;;2.15;;
8042;SDS011;4064;48.132;11.366;2024-02-14T03:58:39;2.83;;;2.20;;
8042;SDS011;4064;48.132;11.366;2024-02-14T04:01:05;4.07;;;1.90;;
8042;SDS011;4064;48.132;11.366;2024-02-14T04:03:31;3.80;;;1.73;;
8042;SDS011;4064;48.132;11.366;2024-02-14T04:05:56;2.97;;;1.60;;
8042;SDS011;4064;48.132;11.366;2024-02-14T04:08:23;2.00;;;1.80;;
8042;SDS011;4064;48.132;11.366;2024-02-14T04:10:48;2.05;;;1.85;;
8042;SDS011;4064;48.132;11.366;2024-02-14T04:13:19;3.45;;;2.15;;
8042;SDS011;4064;48.132;11.366;2024-02-14T04:15:45;2.10;;;1.90;;
8042;SDS011;4064;48.132;11.366;2024-02-14T04:18:12;2.15;;;1.95;;
8042;SDS011;4064;48.132;11.366;2024-02-14T04:20:38;2.30;;;2.00;;
8042;SDS011;4064;48.132;11.366;2024-02-14T04:23:03;3.10;;;1.60;;
8042;SDS011;4064;48.132;11.366;2024-02-14T04:25:32;2.15;;;1.95;;
8042;SDS011;4064;48.132;11.366;2024-02-14T04:27:59;2.95;;;1.65;;
8042;SDS011;4064;48.132;11.366;2024-02-14T04:30:24;2.60;;;1.77;;
8042;SDS011;4064;48.132;11.366;2024-02-14T04:32:50;3.45;;;1.70;;
8042;SDS011;4064;48.132;11.366;2024-02-14T04:35:17;1.73;;;1.60;;
8042;SDS011;4064;48.132;11.366;2024-02-14T04:37:45;3.40;;;1.70;;
8042;SDS011;4064;48.132;11.366;2024-02-14T04:40:13;3.15;;;1.73;;
8042;SDS011;4064;48.132;11.366;2024-02-14T04:42:39;2.42;;;1.90;;
8042;SDS011;4064;48.132;11.366;2024-02-14T04:45:07;3.75;;;2.53;;
8042;SDS011;4064;48.132;11.366;2024-02-14T04:47:33;3.72;;;2.00;;
8042;SDS011;4064;48.132;11.366;2024-02-14T04:50:00;1.90;;;1.50;;
8042;SDS011;4064;48.132;11.366;2024-02-14T04:52:28;2.10;;;1.88;;
8042;SDS011;4064;48.132;11.366;2024-02-14T04:54:54;2.27;;;1.80;;
8042;SDS011;4064;48.132;11.366;2024-02-14T04:57:21;2.40;;;2.20;;
8042;SDS011;4064;48.132;11.366;2024-02-14T04:59:47;2.07;;;1.53;;
8042;SDS011;4064;48.132;11.366;2024-02-14T05:02:16;3.03;;;1.67;;
8042;SDS011;4064;48.132;11.366;2024-02-14T05:04:43;3.10;;;2.00;;
8042;SDS011;4064;48.132;11.366;2024-02-14T05:07:09;3.17;;;1.60;;
8042;SDS011;4064;48.132;11.366;2024-02-14T05:09:35;3.63;;;1.67;;
8042;SDS011;4064;48.132;11.366;2024-02-14T05:12:00;2.23;;;1.60;;
8042;SDS011;4064;48.132;11.366;2024-02-14T05:14:28;1.58;;;1.48;;
8042;SDS011;4064;48.132;11.366;2024-02-14T05:16:57;2.97;;;1.85;;
8042;SDS011;4064;48.132;11.366;2024-02-14T05:19:22;1.70;;;1.60;;
8042;SDS011;4064;48.132;11.366;2024-02-14T05:21:48;2.78;;;1.58;;
8042;SDS011;4064;48.132;11.366;2024-02-14T05:24:14;5.20;;;2.33;;
8042;SDS011;4064;48.132;11.366;2024-02-14T05:26:40;4.73;;;2.20;;
8042;SDS011;4064;48.132;11.366;2024-02-14T05:29:05;3.90;;;1.90;;
8042;SDS011;4064;48.132;11.366;2024-02-14T05:31:44;1.67;;;1.43;;
8042;SDS011;4064;48.132;11.366;2024-02-14T05:34:11;2.00;;;1.80;;
8042;SDS011;4064;48.132;11.366;2024-02-14T05:36:36;2.40;;;1.80;;
8042;SDS011;4064;48.132;11.366;2024-02-14T05:39:03;2.75;;;2.00;;
8042;SDS011;4064;48.132;11.366;2024-02-14T05:41:29;2.85;;;1.98;;
8042;SDS011;4064;48.132;11.366;2024-02-14T05:43:57;2.42;;;1.90;;
8042;SDS011;4064;48.132;11.366;2024-02-14T05:46:23;3.15;;;2.15;;
8042;SDS011;4064;48.132;11.366;2024-02-14T05:48:50;2.30;;;2.10;;
8042;SDS011;4064;48.132;11.366;2024-02-14T05:51:17;2.25;;;1.80;;
8042;SDS011;4064;48.132;11.366;2024-02-14T05:53:43;2.22;;;1.55;;
8042;SDS011;4064;48.132;11.366;2024-02-14T05:56:09;3.30;;;2.20;;
8042;SDS011;4064;48.132;11.366;2024-02-14T05:58:34;3.03;;;1.80;;
8042;SDS011;4064;48.132;11.366;2024-02-14T06:01:00;2.80;;;2.13;;
8042;SDS011;4064;48.132;11.366;2024-02-14T06:03:26;3.13;;;2.47;;
8042;SDS011;4064;48.132;11.366;2024-02-14T06:05:52;5.40;;;1.75;;
8042;SDS011;4064;48.132;11.366;2024-02-14T06:08:18;2.00;;;1.80;;
8042;SDS011;4064;48.132;11.366;2024-02-14T06:10:44;2.42;;;2.10;;
8042;SDS011;4064;48.132;11.366;2024-02-14T06:13:10;2.17;;;1.50;;
8042;SDS011;4064;48.132;11.366;2024-02-14T06:15:36;3.83;;;2.30;;
8042;SDS011;4064;48.132;11.366;2024-02-14T06:18:01;2.17;;;1.90;;
8042;SDS011;4064;48.132;11.366;2024-02-14T06:20:27;2.73;;;2.30;;
8042;SDS011;4064;48.132;11.366;2024-02-14T06:22:53;2.13;;;1.87;;
8042;SDS011;4064;48.132;11.366;2024-02-14T06:25:19;3.90;;;2.92;;
8042;SDS011;4064;48.132;11.366;2024-02-14T06:27:45;3.70;;;2.70;;
8042;SDS011;4064;48.132;11.366;2024-02-14T06:30:11;4.60;;;2.50;;
8042;SDS011;4064;48.132;11.366;2024-02-14T06:32:37;2.53;;;1.92;;
8042;SDS011;4064;48.132;11.366;2024-02-14T06:35:03;3.40;;;3.10;;
8042;SDS011;4064;48.132;11.366;2024-02-14T06:37:29;3.20;;;2.35;;
8042;SDS011;4064;48.132;11.366;2024-02-14T06:39:54;5.60;;;2.90;;
8042;SDS011;4064;48.132;11.366;2024-02-14T06:42:20;3.90;;;2.27;;
8042;SDS011;4064;48.132;11.366;2024-02-14T06:44:46;2.73;;;2.50;;
8042;SDS011;4064;48.132;11.366;2024-02-14T06:47:11;2.40;;;2.20;;
8042;SDS011;4064;48.132;11.366;2024-02-14T06:49:37;4.17;;;2.47;;
8042;SDS011;4064;48.132;11.366;2024-02-14T06:52:03;2.23;;;1.63;;
8042;SDS011;4064;48.132;11.366;2024-02-14T06:54:29;3.10;;;2.40;;
8042;SDS011;4064;48.132;11.366;2024-02-14T06:56:56;2.42;;;1.88;;
8042;SDS011;4064;48.132;11.366;2024-02-14T06:59:21;2.40;;;1.80;;
8042;SDS011;4064;48.132;11.366;2024-02-14T07:01:47;3.23;;;1.80;;
8042;SDS011;4064;48.132;11.366;2024-02-14T07:04:13;2.00;;;1.58;;
8042;SDS011;4064;48.132;11.366;2024-02-14T07:06:39;2.70;;;2.00;;
8042;SDS011;4064;48.132;11.366;2024-02-14T07:09:05;1.63;;;1.53;;
8042;SDS011;4064;48.132;11.366;2024-02-14T07:11:31;2.97;;;2.10;;
8042;SDS011;4064;48.132;11.366;2024-02-14T07:13:56;3.60;;;2.13;;
8042;SDS011;4064;48.132;11.366;2024-02-14T07:16:22;1.90;;;1.70;;
8042;SDS011;4064;48.132;11.366;2024-02-14T07:18:49;8.40;;;2.20;;
8042;SDS011;4064;48.132;11.366;2024-02-14T07:21:14;4.95;;;2.30;;
8042;SDS011;4064;48.132;11.366;2024-02-14T07:23:40;3.70;;;2.63;;
8042;SDS011;4064;48.132;11.366;2024-02-14T07:26:05;3.87;;;1.80;;
8042;SDS011;4064;48.132;11.366;2024-02-14T07:28:31;1.83;;;1.43;;
8042;SDS011;4064;48.132;11.366;2024-02-14T07:30:57;3.20;;;1.80;;
8042;SDS011;4064;48.132;11.366;2024-02-14T07:33:22;2.17;;;1.90;;
8042;SDS011;4064;48.132;11.366;2024-02-14T07:35:48;2.33;;;1.87;;
8042;SDS011;4064;48.132;11.366;2024-02-14T07:38:14;3.72;;;2.08;;
8042;SDS011;4064;48.132;11.366;2024-02-14T07:40:41;4.75;;;2.22;;
8042;SDS011;4064;48.132;11.366;2024-02-14T07:43:07;6.07;;;2.77;;
8042;SDS011;4064;48.132;11.366;2024-02-14T07:45:33;4.53;;;2.10;;
8042;SDS011;4064;48.132;11.366;2024-02-14T07:47:58;3.40;;;2.10;;
8042;SDS011;4064;48.132;11.366;2024-02-14T07:50:24;2.63;;;2.13;;
8042;SDS011;4064;48.132;11.366;2024-02-14T07:52:49;2.70;;;2.13;;
8042;SDS011;4064;48.132;11.366;2024-02-14T07:55:15;2.80;;;2.03;;
8042;SDS011;4064;48.132;11.366;2024-02-14T07:57:42;2.00;;;1.60;;
8042;SDS011;4064;48.132;11.366;2024-02-14T08:00:08;2.05;;;1.67;;
8042;SDS011;4064;48.132;11.366;2024-02-14T08:02:35;2.75;;;1.70;;
8042;SDS011;4064;48.132;11.366;2024-02-14T08:05:01;2.80;;;1.70;;
8042;SDS011;4064;48.132;11.366;2024-02-14T08:07:27;1.70;;;1.60;;
8042;SDS011;4064;48.132;11.366;2024-02-14T08:09:52;2.50;;;1.90;;
8042;SDS011;4064;48.132;11.366;2024-02-14T08:12:19;4.07;;;1.75;;
8042;SDS011;4064;48.132;11.366;2024-02-14T08:14:44;4.50;;;1.53;;
8042;SDS011;4064;48.132;11.366;2024-02-14T08:17:12;2.33;;;1.47;;
8042;SDS011;4064;48.132;11.366;2024-02-14T08:19:39;1.80;;;1.70;;
8042;SDS011;4064;48.132;11.366;2024-02-14T08:22:05;2.93;;;1.57;;
8042;SDS011;4064;48.132;11.366;2024-02-14T08:24:31;2.50;;;2.00;;
8042;SDS011;4064;48.132;11.366;2024-02-14T08:26:57;2.50;;;1.67;;
8042;SDS011;4064;48.132;11.366;2024-02-14T08:29:23;5.50;;;1.83;;
8042;SDS011;4064;48.132;11.366;2024-02-14T08:31:49;4.50;;;2.77;;
8042;SDS011;4064;48.132;11.366;2024-02-14T08:34:14;4.53;;;2.03;;
8042;SDS011;4064;48.132;11.366;2024-02-14T08:36:43;1.97;;;1.63;;
8042;SDS011;4064;48.132;11.366;2024-02-14T08:39:10;1.87;;;1.73;;
8042;SDS011;4064;48.132;11.366;2024-02-14T08:41:39;4.03;;;1.90;;
8042;SDS011;4064;48.132;11.366;2024-02-14T08:44:09;3.40;;;1.50;;
8042;SDS011;4064;48.132;11.366;2024-02-14T08:46:35;2.33;;;1.60;;
8042;SDS011;4064;48.132;11.366;2024-02-14T08:49:01;1.50;;;1.27;;
8042;SDS011;4064;48.132;11.366;2024-02-14T08:51:27;10.27;;;2.10;;
8042;SDS011;4064;48.132;11.366;2024-02-14T08:53:53;3.33;;;2.00;;
8042;SDS011;4064;48.132;11.366;2024-02-14T08:56:22;3.77;;;1.57;;
8042;SDS011;4064;48.132;11.366;2024-02-14T08:58:48;3.00;;;1.70;;
8042;SDS011;4064;48.132;11.366;2024-02-14T09:01:14;3.40;;;2.33;;
8042;SDS011;4064;48.132;11.366;2024-02-14T09:03:40;1.90;;;1.70;;
8042;SDS011;4064;48.132;11.366;2024-02-14T09:06:12;3.27;;;1.97;;
8042;SDS011;4064;48.132;11.366;2024-02-14T09:08:39;2.50;;;1.43;;
8042;SDS011;4064;48.132;11.366;2024-02-14T09:11:05;2.60;;;1.53;;
8042;SDS011;4064;48.132;11.366;2024-02-14T09:13:31;2.00;;;1.30;;
8042;SDS011;4064;48.132;11.366;2024-02-14T09:15:56;2.17;;;1.43;;
8042;SDS011;4064;48.132;11.366;2024-02-14T09:18:22;2.80;;;1.37;;
8042;SDS011;4064;48.132;11.366;2024-02-14T09:20:49;2.60;;;1.13;;
8042;SDS011;4064;48.132;11.366;2024-02-14T09:23:15;1.30;;;1.00;;
8042;SDS011;4064;48.132;11.366;2024-02-14T09:25:45;2.50;;;1.87;;
8042;SDS011;4064;48.132;11.366;2024-02-14T09:28:12;3.40;;;1.63;;
8042;SDS011;4064;48.132;11.366;2024-02-14T09:30:40;1.47;;;1.03;;
8042;SDS011;4064;48.132;11.366;2024-02-14T09:33:05;4.60;;;1.53;;
8042;SDS011;4064;48.132;11.366;2024-02-14T09:35:31;1.90;;;1.60;;
8042;SDS011;4064;48.132;11.366;2024-02-14T09:37:56;2.53;;;1.97;;
8042;SDS011;4064;48.132;11.366;2024-02-14T09:40:22;3.57;;;1.30;;
8042;SDS011;4064;48.132;11.366;2024-02-14T09:42:57;1.40;;;1.17;;
8042;SDS011;4064;48.132;11.366;2024-02-14T09:45:30;2.13;;;1.33;;
8042;SDS011;4064;48.132;11.366;2024-02-14T09:47:58;4.23;;;1.10;;
8042;SDS011;4064;48.132;11.366;2024-02-14T09:50:24;1.60;;;1.33;;
8042;SDS011;4064;48.132;11.366;2024-02-14T09:52:51;1.30;;;1.10;;
8042;SDS011;4064;48.132;11.366;2024-02-14T09:55:18;1.60;;;1.30;;
8042;SDS011;4064;48.132;11.366;2024-02-14T09:57:44;1.23;;;0.80;;
8042;SDS011;4064;48.132;11.366;2024-02-14T10:00:11;1.50;;;1.13;;
8042;SDS011;4064;48.132;11.366;2024-02-14T10:02:40;2.60;;;1.20;;
8042;SDS011;4064;48.132;11.366;2024-02-14T10:05:07;1.60;;;1.00;;
8042;SDS011;4064;48.132;11.366;2024-02-14T10:07:42;1.10;;;0.80;;
8042;SDS011;4064;48.132;11.366;2024-02-14T10:10:09;2.70;;;1.20;;
8042;SDS011;4064;48.132;11.366;2024-02-14T10:12:35;1.60;;;1.50;;
8042;SDS011;4064;48.132;11.366;2024-02-14T10:15:01;3.20;;;1.40;;
8042;SDS011;4064;48.132;11.366;2024-02-14T10:17:27;2.97;;;1.00;;
8042;SDS011;4064;48.132;11.366;2024-02-14T10:19:59;4.23;;;1.00;;
8042;SDS011;4064;48.132;11.366;2024-02-14T10:22:36;1.93;;;1.23;;
8042;SDS011;4064;48.132;11.366;2024-02-14T10:25:03;2.47;;;1.00;;
8042;SDS011;4064;48.132;11.366;2024-02-14T10:27:34;2.43;;;1.10;;
8042;SDS011;4064;48.132;11.366;2024-02-14T10:30:07;1.17;;;0.80;;
8042;SDS011;4064;48.132;11.366;2024-02-14T10:32:36;1.50;;;1.07;;
8042;SDS011;4064;48.132;11.366;2024-02-14T10:35:04;3.27;;;1.10;;
8042;SDS011;4064;48.132;11.366;2024-02-14T10:37:33;1.40;;;1.00;;
8042;SDS011;4064;48.132;11.366;2024-02-14T10:40:01;1.43;;;0.80;;
8042;SDS011;4064;48.132;11.366;2024-02-14T10:42:28;1.80;;;1.30;;
8042;SDS011;4064;48.132;11.366;2024-02-14T10:44:54;1.13;;;0.77;;
8042;SDS011;4064;48.132;11.366;2024-02-14T10:47:20;2.33;;;0.80;;
8042;SDS011;4064;48.132;11.366;2024-02-14T10:49:48;1.60;;;0.80;;
8042;SDS011;4064;48.132;11.366;2024-02-14T10:52:16;1.33;;;0.80;;
8042;SDS011;4064;48.132;11.366;2024-02-14T10:54:43;2.10;;;0.97;;
8042;SDS011;4064;48.132;11.366;2024-02-14T10:57:21;1.30;;;0.80;;
8042;SDS011;4064;48.132;11.366;2024-02-14T10:59:49;2.20;;;0.90;;
8042;SDS011;4064;48.132;11.366;2024-02-14T11:02:16;3.10;;;1.03;;
8042;SDS011;4064;48.132;11.366;2024-02-14T11:04:44;1.70;;;0.90;;
8042;SDS011;4064;48.132;11.366;2024-02-14T11:07:10;1.73;;;1.20;;
8042;SDS011;4064;48.132;11.366;2024-02-14T11:09:38;3.33;;;1.00;;
8042;SDS011;4064;48.132;11.366;2024-02-14T11:12:08;1.20;;;0.90;;
8042;SDS011;4064;48.132;11.366;2024-02-14T11:14:35;1.20;;;0.70;;
8042;SDS011;4064;48.132;11.366;2024-02-14T11:17:03;1.70;;;0.80;;
8042;SDS011;4064;48.132;11.366;2024-02-14T11:19:34;1.00;;;0.70;;
8042;SDS011;4064;48.132;11.366;2024-02-14T11:22:10;4.10;;;0.70;;
8042;SDS011;4064;48.132;11.366;2024-02-14T11:24:40;1.43;;;0.97;;
8042;SDS011;4064;48.132;11.366;2024-02-14T11:27:10;1.50;;;0.83;;
8042;SDS011;4064;48.132;11.366;2024-02-14T11:29:39;1.13;;;0.87;;
8042;SDS011;4064;48.132;11.366;2024-02-14T11:32:08;1.33;;;0.80;;
8042;SDS011;4064;48.132;11.366;2024-02-14T11:34:36;1.50;;;0.67;;
8042;SDS011;4064;48.132;11.366;2024-02-14T11:37:02;1.73;;;1.03;;
8042;SDS011;4064;48.132;11.366;2024-02-14T11:39:30;1.57;;;0.90;;
8042;SDS011;4064;48.132;11.366;2024-02-14T11:41:58;1.27;;;0.73;;
8042;SDS011;4064;48.132;11.366;2024-02-14T11:44:25;1.37;;;1.20;;
8042;SDS011;4064;48.132;11.366;2024-02-14T11:46:51;1.20;;;0.80;;
8042;SDS011;4064;48.132;11.366;2024-02-14T11:49:17;1.80;;;0.80;;
8042;SDS011;4064;48.132;11.366;2024-02-14T11:51:43;1.50;;;1.20;;
8042;SDS011;4064;48.132;11.366;2024-02-14T11:54:09;1.67;;;0.70;;
8042;SDS011;4064;48.132;11.366;2024-02-14T11:56:35;1.27;;;0.60;;
8042;SDS011;4064;48.132;11.366;2024-02-14T11:59:03;1.87;;;0.90;;
8042;SDS011;4064;48.132;11.366;2024-02-14T12:01:30;1.20;;;0.73;;
8042;SDS011;4064;48.132;11.366;2024-02-14T12:04:00;1.27;;;0.90;;
8042;SDS011;4064;48.132;11.366;2024-02-14T12:06:27;1.40;;;1.00;;
8042;SDS011;4064;48.132;11.366;2024-02-14T12:08:54;1.20;;;0.90;;
8042;SDS011;4064;48.132;11.366;2024-02-14T12:11:20;1.10;;;0.77;;
8042;SDS011;4064;48.132;11.366;2024-02-14T12:13:50;3.00;;;0.90;;
8042;SDS011;4064;48.132;11.366;2024-02-14T12:16:15;1.60;;;0.97;;
8042;SDS011;4064;48.132;11.366;2024-02-14T12:18:41;1.33;;;0.80;;
8042;SDS011;4064;48.132;11.366;2024-02-14T12:21:07;1.73;;;1.17;;
8042;SDS011;4064;48.132;11.366;2024-02-14T12:23:32;1.20;;;0.80;;
8042;SDS011;4064;48.132;11.366;2024-02-14T12:26:02;1.30;;;0.83;;
8042;SDS011;4064;48.132;11.366;2024-02-14T12:28:28;1.17;;;0.80;;
8042;SDS011;4064;48.132;11.366;2024-02-14T12:30:56;2.40;;;1.03;;
8042;SDS011;4064;48.132;11.366;2024-02-14T12:33:22;2.90;;;1.53;;
8042;SDS011;4064;48.132;11.366;2024-02-14T12:35:49;1.30;;;0.90;;
8042;SDS011;4064;48.132;11.366;2024-02-14T12:38:17;2.20;;;1.10;;
8042;SDS011;4064;48.132;11.366;2024-02-14T12:40:44;1.33;;;1.13;;
8042;SDS011;4064;48.132;11.366;2024-02-14T12:43:10;1.33;;;1.00;;
8042;SDS011;4064;48.132;11.366;2024-02-14T12:45:37;2.83;;;0.93;;
8042;SDS011;4064;48.132;11.366;2024-02-14T12:48:03;1.10;;;0.70;;
8042;SDS011;4064;48.132;11.366;2024-02-14T12:50:30;2.67;;;1.00;;
8042;SDS011;4064;48.132;11.366;2024-02-14T12:52:56;2.27;;;1.00;;
8042;SDS011;4064;48.132;11.366;2024-02-14T12:55:23;1.90;;;1.00;;
8042;SDS011;4064;48.132;11.366;2024-02-14T12:57:50;1.50;;;0.80;;
8042;SDS011;4064;48.132;11.366;2024-02-14T13:00:19;1.40;;;1.00;;
8042;SDS011;4064;48.132;11.366;2024-02-14T13:02:46;1.53;;;0.77;;
8042;SDS011;4064;48.132;11.366;2024-02-14T13:05:16;1.50;;;0.80;;
8042;SDS011;4064;48.132;11.366;2024-02-14T13:07:42;1.10;;;0.80;;
8042;SDS011;4064;48.132;11.366;2024-02-14T13:10:08;1.17;;;0.70;;
8042;SDS011;4064;48.132;11.366;2024-02-14T13:12:37;1.73;;;0.80;;
8042;SDS011;4064;48.132;11.366;2024-02-14T13:15:04;1.07;;;0.63;;
8042;SDS011;4064;48.132;11.366;2024-02-14T13:17:30;0.90;;;0.60;;
8042;SDS011;4064;48.132;11.366;2024-02-14T13:19:56;1.83;;;0.83;;
8042;SDS011;4064;48.132;11.366;2024-02-14T13:22:22;1.40;;;0.90;;
8042;SDS011;4064;48.132;11.366;2024-02-14T13:24:48;1.13;;;0.70;;
8042;SDS011;4064;48.132;11.366;2024-02-14T13:27:13;1.10;;;0.70;;
8042;SDS011;4064;48.132;11.366;2024-02-14T13:29:39;1.10;;;0.70;;
8042;SDS011;4064;48.132;11.366;2024-02-14T13:32:05;1.10;;;0.70;;
8042;SDS011;4064;48.132;11.366;2024-02-14T13:34:32;1.20;;;0.80;;
8042;SDS011;4064;48.132;11.366;2024-02-14T13:36:58;1.17;;;0.80;;
8042;SDS011;4064;48.132;11.366;2024-02-14T13:39:24;1.23;;;0.90;;
8042;SDS011;4064;48.132;11.366;2024-02-14T13:41:50;1.27;;;0.80;;
8042;SDS011;4064;48.132;11.366;2024-02-14T13:44:17;1.60;;;1.00;;
8042;SDS011;4064;48.132;11.366;2024-02-14T13:46:43;1.00;;;0.67;;
8042;SDS011;4064;48.132;11.366;2024-02-14T13:49:11;1.10;;;0.80;;
8042;SDS011;4064;48.132;11.366;2024-02-14T13:51:41;2.90;;;1.00;;
8042;SDS011;4064;48.132;11.366;2024-02-14T13:54:06;1.40;;;0.70;;
8042;SDS011;4064;48.132;11.366;2024-02-14T13:56:34;1.20;;;0.70;;
8042;SDS011;4064;48.132;11.366;2024-02-14T13:58:59;1.60;;;0.80;;
8042;SDS011;4064;48.132;11.366;2024-02-14T14:01:25;1.00;;;0.70;;
8042;SDS011;4064;48.132;11.366;2024-02-14T14:03:51;1.00;;;0.70;;
8042;SDS011;4064;48.132;11.366;2024-02-14T14:06:19;2.43;;;0.83;;
8042;SDS011;4064;48.132;11.366;2024-02-14T14:08:45;1.07;;;0.70;;
8042;SDS011;4064;48.132;11.366;2024-02-14T14:11:11;1.47;;;0.70;;
8042;SDS011;4064;48.132;11.366;2024-02-14T14:13:37;1.30;;;0.90;;
8042;SDS011;4064;48.132;11.366;2024-02-14T14:16:03;1.53;;;0.77;;
8042;SDS011;4064;48.132;11.366;2024-02-14T14:18:30;1.50;;;0.83;;
8042;SDS011;4064;48.132;11.366;2024-02-14T14:20:56;1.10;;;0.80;;
8042;SDS011;4064;48.132;11.366;2024-02-14T14:23:21;1.40;;;0.73;;
8042;SDS011;4064;48.132;11.366;2024-02-14T14:25:48;1.20;;;0.80;;
8042;SDS011;4064;48.132;11.366;2024-02-14T14:28:14;3.03;;;0.93;;
8042;SDS011;4064;48.132;11.366;2024-02-14T14:30:40;1.67;;;0.80;;
8042;SDS011;4064;48.132;11.366;2024-02-14T14:33:06;1.77;;;0.70;;
8042;SDS011;4064;48.132;11.366;2024-02-14T14:35:33;1.00;;;0.67;;
8042;SDS011;4064;48.132;11.366;2024-02-14T14:38:00;2.33;;;0.93;;
8042;SDS011;4064;48.132;11.366;2024-02-14T14:40:28;4.00;;;0.90;;
8042;SDS011;4064;48.132;11.366;2024-02-14T14:42:53;1.50;;;0.77;;
8042;SDS011;4064;48.132;11.366;2024-02-14T14:45:19;2.43;;;0.90;;
8042;SDS011;4064;48.132;11.366;2024-02-14T14:47:45;1.10;;;0.80;;
8042;SDS011;4064;48.132;11.366;2024-02-14T14:50:11;1.30;;;1.00;;
8042;SDS011;4064;48.132;11.366;2024-02-14T14:52:37;1.10;;;0.80;;
8042;SDS011;4064;48.132;11.366;2024-02-14T14:55:04;1.30;;;1.00;;
8042;SDS011;4064;48.132;11.366;2024-02-14T14:57:30;1.63;;;0.80;;